Data for 11/23/2010

Time Sea-Level Adjusted Pressure Absolute Pressure Temperature Relative Humidity Dew Point   
(mb) (inHg) (mb) (inHg) (C) (F) (%) (C) (F)
00:05 1007 29.74 837 24.72 -19.6 -3.3 88 -21.2 -6.1
00:10 1007 29.74 837 24.72 -19.3 -2.7 87 -21 -5.8
00:15 1007 29.74 837 24.72 -19.1 -2.4 86 -20.9 -5.7
00:20 1007 29.74 837 24.72 -19.1 -2.3 86 -20.9 -5.6
00:25 1007 29.74 836 24.69 -19.2 -2.5 85 -21.1 -6
00:30 1007 29.74 836 24.69 -19.7 -3.4 87 -21.4 -6.4
00:35 1007 29.74 836 24.69 -19.5 -3.1 86 -21.3 -6.3
00:40 1007 29.74 836 24.69 -19.4 -3 87 -21.1 -6
00:45 1007 29.74 836 24.69 -19.2 -2.5 85 -21.1 -5.9
00:50 1007 29.74 836 24.69 -19.3 -2.7 84 -21.3 -6.3
00:55 1007 29.74 836 24.69 -19.3 -2.8 84 -21.4 -6.5
01:00 1007 29.74 836 24.69 -19.5 -3.1 84 -21.5 -6.7
01:05 1007 29.74 836 24.69 -19.4 -3 83 -21.6 -6.8
01:10 1007 29.74 836 24.69 -19.5 -3.1 83 -21.7 -7
01:15 1007 29.74 836 24.69 -19.6 -3.3 83 -21.8 -7.2
01:20 1007 29.74 836 24.69 -19.6 -3.3 84 -21.7 -7
01:25 1007 29.74 836 24.69 -19.6 -3.3 83 -21.7 -7.1
01:30 1007 29.74 836 24.69 -19.7 -3.4 84 -21.7 -7.1
01:35 1007 29.74 836 24.69 -19.6 -3.3 83 -21.8 -7.3
01:40 1007 29.74 836 24.69 -19.7 -3.5 83 -21.9 -7.4
01:45 1007 29.74 836 24.69 -19.7 -3.5 82 -22 -7.7
01:50 1007 29.74 836 24.69 -19.7 -3.5 82 -22 -7.7
01:55 1006 29.71 836 24.69 -19.6 -3.3 83 -21.9 -7.4
02:00 1006 29.71 836 24.69 -19.5 -3.2 83 -21.8 -7.2
02:05 1006 29.71 835 24.66 -19.4 -2.9 81 -21.9 -7.4
02:10 1006 29.71 835 24.66 -19.7 -3.4 82 -22 -7.7
02:15 1006 29.71 835 24.66 -19.7 -3.4 81 -22.2 -7.9
02:20 1006 29.71 835 24.66 -19.5 -3.2 82 -21.9 -7.4
02:25 1006 29.71 835 24.66 -19.3 -2.7 81 -21.8 -7.2
02:30 1005 29.68 835 24.66 -19.4 -2.9 81 -21.9 -7.4
02:35 1005 29.68 835 24.66 -19.3 -2.8 80 -22 -7.6
02:40 1005 29.68 834 24.63 -19.2 -2.6 78 -22.1 -7.8
02:45 1005 29.68 834 24.63 -19.1 -2.3 80 -21.7 -7.1
02:50 1005 29.68 835 24.66 -18.7 -1.7 79 -21.5 -6.7
02:55 1005 29.68 835 24.66 -18.6 -1.5 79 -21.4 -6.5
03:00 1005 29.68 835 24.66 -18.7 -1.6 78 -21.6 -6.9
03:05 1005 29.68 835 24.66 -18.8 -1.9 76 -22 -7.7
03:10 1005 29.68 834 24.63 -19.5 -3 79 -22.2 -8
03:15 1005 29.68 834 24.63 -19.8 -3.7 80 -22.4 -8.3
03:20 1005 29.68 834 24.63 -19.8 -3.6 80 -22.5 -8.4
03:25 1005 29.68 834 24.63 -20.2 -4.3 82 -22.5 -8.4
03:30 1005 29.68 834 24.63 -20.1 -4.3 83 -22.4 -8.3
03:35 1005 29.68 834 24.63 -20 -3.9 83 -22.2 -8
03:40 1005 29.68 834 24.63 -19.8 -3.6 84 -21.9 -7.4
03:45 1005 29.68 834 24.63 -19.4 -2.9 82 -21.7 -7.1
03:50 1005 29.68 834 24.63 -19.1 -2.4 82 -21.5 -6.7
03:55 1004 29.65 834 24.63 -19 -2.1 81 -21.5 -6.6
04:00 1004 29.65 834 24.63 -18.9 -2 80 -21.5 -6.7
04:05 1004 29.65 834 24.63 -18.8 -1.9 80 -21.5 -6.7
04:10 1004 29.65 834 24.63 -19.2 -2.6 80 -21.8 -7.3
04:15 1004 29.65 833 24.6 -19.5 -3 82 -21.9 -7.4
04:20 1004 29.65 833 24.6 -19.5 -3.1 83 -21.8 -7.2
04:25 1004 29.65 833 24.6 -19.6 -3.2 82 -21.8 -7.3
04:30 1004 29.65 833 24.6 -19.5 -3.1 82 -21.8 -7.2
04:35 1004 29.65 833 24.6 -19.3 -2.8 83 -21.5 -6.7
04:40 1004 29.65 833 24.6 -19.1 -2.3 83 -21.3 -6.3
04:45 1004 29.65 833 24.6 -18.9 -2 82 -21.3 -6.3
04:50 1004 29.65 833 24.6 -18.9 -2 81 -21.5 -6.6
04:55 1004 29.65 833 24.6 -19.3 -2.8 82 -21.7 -7.1
05:00 1004 29.65 833 24.6 -19.3 -2.7 83 -21.5 -6.7
05:05 1004 29.65 833 24.6 -19 -2.1 81 -21.5 -6.7
05:10 1004 29.65 833 24.6 -19.2 -2.6 82 -21.5 -6.7
05:15 1004 29.65 833 24.6 -19.4 -3 84 -21.6 -6.8
05:20 1003 29.62 833 24.6 -19.3 -2.8 82 -21.6 -7
05:25 1004 29.65 833 24.6 -19.4 -2.9 81 -21.9 -7.4
05:30 1003 29.62 833 24.6 -19.3 -2.7 75 -22.7 -8.9
05:35 1003 29.62 832 24.57 -19.3 -2.8 73 -23 -9.3
05:40 1003 29.62 832 24.57 -19.4 -2.8 73 -23 -9.5
05:45 1003 29.62 832 24.57 -19.4 -2.9 74 -22.9 -9.3
05:50 1003 29.62 832 24.57 -19.3 -2.7 78 -22.3 -8.1
05:55 1003 29.62 832 24.57 -19.2 -2.6 80 -21.9 -7.4
06:00 1003 29.62 832 24.57 -19.3 -2.8 80 -21.9 -7.5
06:05 1003 29.62 832 24.57 -19.2 -2.6 76 -22.4 -8.3
06:10 1003 29.62 832 24.57 -19.1 -2.4 73 -22.8 -9
06:15 1003 29.62 832 24.57 -19.1 -2.3 72 -22.9 -9.3
06:20 1003 29.62 832 24.57 -19.2 -2.6 77 -22.4 -8.3
06:25 1003 29.62 832 24.57 -19.3 -2.8 82 -21.7 -7.1
06:30 1003 29.62 832 24.57 -19.5 -3.1 82 -21.9 -7.4
06:35 1003 29.62 832 24.57 -19.4 -3 72 -23.2 -9.8
06:40 1003 29.62 832 24.57 -19.5 -3.2 71 -23.6 -10.4
06:45 1003 29.62 832 24.57 -19.8 -3.7 71 -23.9 -11
06:50 1003 29.62 832 24.57 -19.9 -3.8 71 -24 -11.2
06:55 1003 29.62 832 24.57 -19.9 -3.9 71 -23.9 -11
07:00 1003 29.62 832 24.57 -19.9 -3.9 72 -23.8 -10.8
07:05 1003 29.62 832 24.57 -20 -4 73 -23.6 -10.5
07:10 1003 29.62 832 24.57 -19.9 -3.8 73 -23.6 -10.5
07:15 1003 29.62 832 24.57 -19.8 -3.6 72 -23.6 -10.5
07:20 1002 29.59 832 24.57 -19.8 -3.6 71 -23.7 -10.7
07:25 1002 29.59 832 24.57 -19.9 -3.7 71 -23.8 -10.9
07:30 1003 29.62 832 24.57 -19.9 -3.8 71 -24 -11.1
07:35 1003 29.62 832 24.57 -20.1 -4.1 72 -23.9 -11
07:40 1003 29.62 832 24.57 -20.2 -4.3 74 -23.7 -10.7
07:45 1002 29.59 832 24.57 -20.2 -4.3 72 -24 -11.1
07:50 1002 29.59 831 24.54 -20.3 -4.5 74 -23.8 -10.8
07:55 1002 29.59 832 24.57 -20.3 -4.6 74 -23.9 -11
08:00 1003 29.62 832 24.57 -20.4 -4.8 72 -24.2 -11.5
08:05 1002 29.59 832 24.57 -20.4 -4.8 72 -24.3 -11.7
08:10 1002 29.59 832 24.57 -20.5 -4.8 72 -24.3 -11.7
08:15 1003 29.62 832 24.57 -20.5 -4.9 72 -24.4 -11.8
08:20 1003 29.62 832 24.57 -20.5 -4.9 72 -24.3 -11.7
08:25 1003 29.62 832 24.57 -20.5 -4.8 70 -24.5 -12.2
08:30 1003 29.62 832 24.57 -20.6 -5 70 -24.7 -12.4
08:35 1003 29.62 832 24.57 -20.6 -5.1 71 -24.6 -12.4
08:40 1003 29.62 832 24.57 -20.6 -5 71 -24.5 -12.2
08:45 1003 29.62 832 24.57 -20.5 -4.9 71 -24.4 -12
08:50 1003 29.62 832 24.57 -20.5 -4.9 71 -24.5 -12.2
08:55 1003 29.62 832 24.57 -20.5 -4.9 71 -24.6 -12.2
09:00 1003 29.62 832 24.57 -20.5 -4.9 71 -24.5 -12
09:05 1003 29.62 833 24.6 -20.5 -4.8 70 -24.6 -12.3
09:10 1004 29.65 833 24.6 -20.5 -4.9 69 -24.7 -12.5
09:15 1004 29.65 833 24.6 -20.5 -4.8 70 -24.5 -12.2
09:20 1004 29.65 833 24.6 -20.5 -4.8 72 -24.3 -11.8
09:25 1004 29.65 834 24.63 -20.5 -4.9 74 -24.1 -11.4
09:30 1005 29.68 834 24.63 -20.5 -4.9 75 -23.8 -10.8
09:35 1005 29.68 834 24.63 -20.4 -4.8 78 -23.3 -10
09:40 1005 29.68 834 24.63 -20.1 -4.2 75 -23.5 -10.3
09:45 1005 29.68 834 24.63 -20.3 -4.5 78 -23.2 -9.8
09:50 1005 29.68 834 24.63 -20.3 -4.6 78 -23.2 -9.8
09:55 1005 29.68 834 24.63 -20.2 -4.4 79 -23 -9.4
10:00 1005 29.68 834 24.63 -20.3 -4.5 79 -23.1 -9.6
10:05 1005 29.68 834 24.63 -20.5 -4.9 79 -23.2 -9.8
10:10 1005 29.68 834 24.63 -20.7 -5.2 80 -23.3 -10
10:15 1004 29.65 834 24.63 -20.7 -5.3 80 -23.3 -9.9
10:20 1005 29.68 834 24.63 -20.7 -5.2 81 -23.2 -9.7
10:25 1005 29.68 834 24.63 -20.5 -4.9 80 -23.2 -9.7
10:30 1005 29.68 834 24.63 -20.5 -4.8 80 -23.1 -9.6
10:35 1005 29.68 834 24.63 -20.5 -4.8 79 -23.2 -9.8
10:40 1005 29.68 834 24.63 -20.3 -4.6 80 -23 -9.3
10:45 1005 29.68 834 24.63 -20.4 -4.6 78 -23.3 -10
10:50 1005 29.68 834 24.63 -20.5 -5 79 -23.3 -10
10:55 1005 29.68 834 24.63 -20.4 -4.8 78 -23.3 -9.9
11:00 1005 29.68 834 24.63 -20.4 -4.7 78 -23.4 -10
11:05 1005 29.68 834 24.63 -20.3 -4.6 79 -23.1 -9.6
11:10 1005 29.68 834 24.63 -20.4 -4.7 77 -23.4 -10.2
11:15 1005 29.68 834 24.63 -20.3 -4.6 77 -23.4 -10.2
11:20 1005 29.68 834 24.63 -20.3 -4.5 75 -23.7 -10.6
11:25 1005 29.68 834 24.63 -20.4 -4.7 76 -23.6 -10.5
11:30 1005 29.68 834 24.63 -20.2 -4.4 76 -23.5 -10.3
11:35 1005 29.68 834 24.63 -20.2 -4.3 75 -23.6 -10.5
11:40 1005 29.68 834 24.63 -20.3 -4.5 73 -24 -11.2
11:45 1005 29.68 834 24.63 -20.4 -4.6 74 -23.8 -10.9
11:50 1005 29.68 834 24.63 -20.4 -4.6 73 -24 -11.2
11:55 1004 29.65 834 24.63 -20.5 -5 74 -24 -11.2
12:00 1004 29.65 833 24.6 -20.5 -4.8 75 -23.8 -10.9
12:05 1004 29.65 833 24.6 -20.5 -4.8 76 -23.7 -10.7
12:10 1004 29.65 833 24.6 -20.4 -4.7 75 -23.7 -10.7
12:15 1004 29.65 833 24.6 -20.3 -4.5 76 -23.5 -10.3
12:20 1004 29.65 833 24.6 -20 -3.9 75 -23.3 -10
12:25 1004 29.65 833 24.6 -20 -4 75 -23.4 -10.2
12:30 1004 29.65 833 24.6 -20.1 -4.1 72 -23.8 -10.9
12:35 1004 29.65 833 24.6 -19.9 -3.8 71 -23.9 -11
12:40 1004 29.65 833 24.6 -19.9 -3.8 71 -23.9 -11
12:45 1004 29.65 833 24.6 -19.9 -3.8 72 -23.7 -10.7
12:50 1004 29.65 833 24.6 -19.8 -3.6 73 -23.4 -10.2
12:55 1004 29.65 833 24.6 -19.6 -3.2 74 -23.1 -9.5
13:00 1004 29.65 833 24.6 -19.5 -3.1 74 -23 -9.5
13:05 1004 29.65 833 24.6 -19.4 -2.8 73 -23 -9.5
13:10 1004 29.65 833 24.6 -19.5 -3.2 73 -23.2 -9.8
13:15 1004 29.65 833 24.6 -19.8 -3.6 75 -23.1 -9.6
13:20 1004 29.65 833 24.6 -19.7 -3.4 78 -22.6 -8.7
13:25 1004 29.65 833 24.6 -19.6 -3.3 77 -22.7 -8.8
13:30 1004 29.65 834 24.63 -19.7 -3.4 77 -22.8 -9
13:35 1004 29.65 834 24.63 -19.6 -3.2 77 -22.7 -8.8
13:40 1004 29.65 834 24.63 -19.5 -3.1 79 -22.3 -8.1
13:45 1004 29.65 833 24.6 -19.3 -2.8 77 -22.4 -8.3
13:50 1004 29.65 833 24.6 -19.3 -2.7 78 -22.2 -7.9
13:55 1004 29.65 833 24.6 -19 -2.3 77 -22.1 -7.8
14:00 1004 29.65 833 24.6 -19.1 -2.4 77 -22.2 -7.9
14:05 1004 29.65 833 24.6 -19.1 -2.4 76 -22.4 -8.3
14:10 1004 29.65 833 24.6 -19.2 -2.6 78 -22.2 -8
14:15 1004 29.65 833 24.6 -19.2 -2.6 77 -22.3 -8.2
14:20 1004 29.65 833 24.6 -19.2 -2.6 76 -22.4 -8.3
14:25 1004 29.65 833 24.6 -19.3 -2.7 77 -22.3 -8.2
14:30 1004 29.65 833 24.6 -19.4 -3 76 -22.6 -8.7
14:35 1004 29.65 833 24.6 -19.7 -3.5 77 -22.7 -8.9
14:40 1004 29.65 834 24.63 -19.8 -3.6 78 -22.7 -8.8
14:45 1005 29.68 834 24.63 -19.7 -3.4 79 -22.5 -8.5
14:50 1004 29.65 834 24.63 -19.6 -3.3 78 -22.5 -8.4
14:55 1005 29.68 834 24.63 -19.6 -3.3 78 -22.6 -8.6
15:00 1005 29.68 834 24.63 -19.9 -3.7 79 -22.6 -8.6
15:05 1005 29.68 834 24.63 -19.8 -3.7 78 -22.7 -8.8
15:10 1005 29.68 834 24.63 -20 -3.9 80 -22.6 -8.7
15:15 1004 29.65 834 24.63 -20 -4 79 -22.8 -9.1
15:20 1005 29.68 834 24.63 -20.2 -4.3 79 -22.9 -9.1
15:25 1005 29.68 834 24.63 -20.3 -4.5 80 -22.9 -9.2
15:30 1005 29.68 834 24.63 -20.4 -4.6 79 -23.1 -9.5
15:35 1005 29.68 834 24.63 -20.6 -5 79 -23.4 -10.1
15:40 1005 29.68 834 24.63 -20.7 -5.3 80 -23.4 -10.1
15:45 1005 29.68 834 24.63 -20.6 -5 79 -23.3 -9.9
15:50 1005 29.68 834 24.63 -20.7 -5.2 79 -23.4 -10.1
15:55 1005 29.68 834 24.63 -20.7 -5.2 79 -23.4 -10.2
16:00 1005 29.68 834 24.63 -20.8 -5.4 79 -23.4 -10.2
16:05 1005 29.68 834 24.63 -20.9 -5.6 81 -23.4 -10.1
16:10 1005 29.68 834 24.63 -20.9 -5.6 80 -23.5 -10.3
16:15 1005 29.68 834 24.63 -20.9 -5.6 81 -23.3 -9.9
16:20 1005 29.68 834 24.63 -21.2 -6.1 79 -24 -11.1
16:25 1005 29.68 834 24.63 -21.3 -6.3 81 -23.7 -10.6
16:30 1005 29.68 834 24.63 -21 -5.8 80 -23.5 -10.4
16:35 1005 29.68 834 24.63 -21 -5.8 81 -23.4 -10.1
16:40 1005 29.68 834 24.63 -21 -5.8 79 -23.7 -10.7
16:45 1005 29.68 834 24.63 -21.3 -6.3 80 -23.8 -10.9
16:50 1005 29.68 834 24.63 -21.1 -5.9 81 -23.5 -10.4
16:55 1005 29.68 834 24.63 -21 -5.9 80 -23.7 -10.6
17:00 1005 29.68 834 24.63 -21.1 -6 79 -23.9 -11
17:05 1005 29.68 834 24.63 -21.3 -6.3 80 -23.9 -11
17:10 1005 29.68 835 24.66 -21.2 -6.2 82 -23.5 -10.3
17:15 1005 29.68 835 24.66 -21.1 -6 81 -23.6 -10.5
17:20 1005 29.68 835 24.66 -21.2 -6.2 80 -23.8 -10.8
17:25 1006 29.71 835 24.66 -21.3 -6.3 81 -23.7 -10.7
17:30 1006 29.71 835 24.66 -21.1 -6 81 -23.6 -10.4
17:35 1006 29.71 835 24.66 -21.2 -6.1 81 -23.7 -10.6
17:40 1006 29.71 835 24.66 -21.2 -6.1 81 -23.5 -10.4
17:45 1006 29.71 835 24.66 -21.1 -6.1 80 -23.8 -10.8
17:50 1006 29.71 836 24.69 -21.3 -6.3 81 -23.7 -10.7
17:55 1007 29.74 836 24.69 -21.3 -6.4 81 -23.8 -10.8
18:00 1007 29.74 836 24.69 -21.3 -6.4 80 -23.9 -11
18:05 1007 29.74 836 24.69 -21.6 -6.9 80 -24.2 -11.5
18:10 1007 29.74 836 24.69 -21.8 -7.3 81 -24.3 -11.8
18:15 1007 29.74 836 24.69 -21.9 -7.4 81 -24.4 -11.9
18:20 1007 29.74 836 24.69 -22 -7.5 80 -24.6 -12.3
18:25 1007 29.74 836 24.69 -22.1 -7.7 80 -24.6 -12.2
18:30 1007 29.74 836 24.69 -22.1 -7.7 80 -24.6 -12.3
18:35 1007 29.74 836 24.69 -22.1 -7.8 80 -24.7 -12.4
18:40 1007 29.74 837 24.72 -22.1 -7.8 80 -24.6 -12.4
18:45 1007 29.74 836 24.69 -22.2 -8 80 -24.7 -12.5
18:50 1008 29.77 837 24.72 -22.3 -8.1 81 -24.8 -12.6
18:55 1007 29.74 836 24.69 -22.3 -8.1 80 -24.8 -12.7
19:00 1007 29.74 837 24.72 -22.3 -8.1 80 -24.8 -12.6
19:05 1007 29.74 837 24.72 -22.3 -8.2 79 -25 -13
19:10 1008 29.77 837 24.72 -22.6 -8.6 81 -25.1 -13.1
19:15 1007 29.74 837 24.72 -22.5 -8.5 81 -24.9 -12.8
19:20 1007 29.74 836 24.69 -22.5 -8.4 81 -24.9 -12.9
19:25 1007 29.74 837 24.72 -22.4 -8.4 80 -25 -13
19:30 1008 29.77 837 24.72 -22.4 -8.4 79 -25.1 -13.1
19:35 1008 29.77 837 24.72 -22.4 -8.4 81 -24.9 -12.8
19:40 1008 29.77 837 24.72 -22.3 -8.2 80 -24.9 -12.8
19:45 1008 29.77 837 24.72 -22.3 -8.2 80 -24.9 -12.8
19:50 1008 29.77 837 24.72 -22.3 -8.2 80 -24.8 -12.7
19:55 1008 29.77 837 24.72 -22.2 -7.9 80 -24.7 -12.5
20:00 1008 29.77 837 24.72 -22.1 -7.8 80 -24.7 -12.4
20:05 1008 29.77 837 24.72 -22.1 -7.7 81 -24.6 -12.2
20:10 1008 29.77 837 24.72 -22 -7.5 80 -24.5 -12.1
20:15 1007 29.74 837 24.72 -22 -7.6 80 -24.5 -12.2
20:20 1007 29.74 837 24.72 -22 -7.6 80 -24.6 -12.2
20:25 1008 29.77 837 24.72 -22 -7.6 80 -24.6 -12.2
20:30 1008 29.77 837 24.72 -22 -7.5 80 -24.5 -12.1
20:35 1008 29.77 837 24.72 -21.9 -7.4 80 -24.4 -12
20:40 1008 29.77 837 24.72 -21.9 -7.4 80 -24.5 -12.1
20:45 1008 29.77 837 24.72 -21.9 -7.5 80 -24.5 -12
20:50 1008 29.77 837 24.72 -21.9 -7.4 80 -24.4 -12
20:55 1008 29.77 837 24.72 -21.9 -7.4 79 -24.5 -12.2
21:00 1008 29.77 838 24.75 -21.9 -7.5 80 -24.5 -12.1
21:05 1008 29.77 838 24.75 -21.9 -7.5 80 -24.5 -12.1
21:10 1008 29.77 838 24.75 -21.9 -7.3 80 -24.5 -12
21:15 1008 29.77 838 24.75 -21.9 -7.4 81 -24.4 -11.9
21:20 1008 29.77 838 24.75 -21.8 -7.2 80 -24.4 -11.9
21:25 1008 29.77 838 24.75 -21.7 -7.1 80 -24.3 -11.8
21:30 1008 29.77 838 24.75 -21.7 -7.1 80 -24.3 -11.8
21:35 1008 29.77 838 24.75 -21.8 -7.2 79 -24.4 -12
21:40 1009 29.8 838 24.75 -21.8 -7.3 80 -24.4 -11.9
21:45 1008 29.77 838 24.75 -21.8 -7.2 80 -24.3 -11.8
21:50 1008 29.77 838 24.75 -21.8 -7.2 80 -24.3 -11.7
21:55 1008 29.77 838 24.75 -21.7 -7.1 80 -24.3 -11.7
22:00 1009 29.8 838 24.75 -21.8 -7.2 80 -24.4 -11.9
22:05 1009 29.8 838 24.75 -21.8 -7.3 80 -24.4 -11.9
22:10 1009 29.8 838 24.75 -21.9 -7.4 80 -24.4 -11.9
22:15 1009 29.8 838 24.75 -21.9 -7.4 80 -24.5 -12.1
22:20 1009 29.8 838 24.75 -21.9 -7.4 80 -24.5 -12
22:25 1009 29.8 838 24.75 -21.9 -7.4 80 -24.5 -12
22:30 1009 29.8 838 24.75 -21.9 -7.4 81 -24.4 -11.9
22:35 1009 29.8 838 24.75 -21.8 -7.3 80 -24.3 -11.8
22:40 1009 29.8 838 24.75 -21.9 -7.3 80 -24.4 -11.9
22:45 1009 29.8 838 24.75 -21.9 -7.3 80 -24.4 -11.9
22:50 1009 29.8 838 24.75 -21.9 -7.4 80 -24.5 -12.1
22:55 1009 29.8 838 24.75 -22 -7.5 79 -24.7 -12.4
23:00 1009 29.8 838 24.75 -22.1 -7.7 79 -24.7 -12.5
23:05 1009 29.8 838 24.75 -22.1 -7.7 80 -24.6 -12.2
23:10 1009 29.8 838 24.75 -22 -7.5 80 -24.5 -12.1
23:15 1009 29.8 838 24.75 -22 -7.6 80 -24.6 -12.3
23:20 1009 29.8 838 24.75 -22.1 -7.7 80 -24.6 -12.4
23:25 1009 29.8 838 24.75 -22 -7.6 80 -24.6 -12.3
23:30 1009 29.8 838 24.75 -22 -7.7 79 -24.8 -12.6
23:35 1009 29.8 838 24.75 -22.1 -7.8 79 -24.8 -12.6
23:40 1009 29.8 838 24.75 -22.1 -7.7 80 -24.6 -12.3
23:45 1009 29.8 838 24.75 -21.9 -7.5 80 -24.6 -12.2
23:50 1009 29.8 838 24.75 -21.9 -7.4 79 -24.6 -12.3
23:55 1009 29.8 838 24.75 -21.9 -7.4 79 -24.6 -12.3
24:00 1009 29.8 838 24.75 -21.9 -7.5 80 -24.6 -12.2